Time;durP1;ratioP1;P1;durP2;ratioP2;P2;SDS_P1;SDS_P2;PMS_P1;PMS_P2;Temp;Humidity;BMP_temperature;BMP_pressure;BME280_temperature;BME280_humidity;BME280_pressure;Samples;Min_cycle;Max_cycle;Signal;HPM_P1;HPM_P2
2022/12/17 13:06:13;;;;;;;2.27;1.20;;;;;;;11.83;100.00;101584.56;2111129;28;20440;-61
2022/12/17 13:07:40;;;;;;;1.47;1.00;;;;;;;11.80;100.00;101585.38;2112341;28;21659;-61
2022/12/17 13:08:41;;;;;;;1.30;0.93;;;;;;;11.76;100.00;101590.19;2108879;28;20448;-61
2022/12/17 13:09:51;;;;;;;2.47;1.40;;;;;;;11.68;100.00;101580.38;2112434;28;20424;-61
2022/12/17 13:10:53;;;;;;;2.07;1.20;;;;;;;11.70;100.00;101608.53;2112070;28;20201;-61
2022/12/17 13:11:59;;;;;;;1.87;1.47;;;;;;;11.63;100.00;101605.84;2118964;27;20454;-61
2022/12/17 13:13:21;;;;;;;2.47;1.70;;;;;;;11.61;100.00;101605.44;2119123;27;20442;-60
2022/12/17 13:14:34;;;;;;;2.27;1.67;;;;;;;11.66;100.00;101622.44;2112599;28;20451;-61
2022/12/17 13:15:42;;;;;;;2.37;1.70;;;;;;;11.70;100.00;101616.84;2111562;28;20440;-61
2022/12/17 13:16:46;;;;;;;2.50;1.70;;;;;;;11.76;100.00;101618.75;2111339;28;20434;-61
2022/12/17 13:18:02;;;;;;;2.97;1.60;;;;;;;11.90;100.00;101626.09;2112343;27;20517;-61
2022/12/17 13:19:18;;;;;;;2.93;2.00;;;;;;;12.00;100.00;101627.97;2110169;28;20853;-61
2022/12/17 13:20:20;;;;;;;3.10;1.73;;;;;;;12.11;100.00;101625.81;2111741;28;20515;-61
2022/12/17 13:21:25;;;;;;;2.03;1.53;;;;;;;12.16;100.00;101640.03;2111357;28;20443;-60
2022/12/17 13:22:26;;;;;;;3.10;1.60;;;;;;;12.09;100.00;101629.00;2110856;28;20922;-61
2022/12/17 13:23:29;;;;;;;2.07;1.60;;;;;;;12.09;100.00;101631.00;2111612;28;20440;-61
2022/12/17 13:24:29;;;;;;;2.77;1.90;;;;;;;12.15;100.00;101624.53;2111722;28;20820;-61
2022/12/17 13:25:30;;;;;;;2.73;1.70;;;;;;;11.82;100.00;101569.88;2110673;28;20790;-61
2022/12/17 13:26:42;;;;;;;2.33;1.70;;;;;;;12.30;100.00;101625.91;2110723;28;20175;-61
2022/12/17 13:27:44;;;;;;;2.30;1.97;;;;;;;12.40;100.00;101644.44;2111427;28;20178;-61
2022/12/17 13:29:16;;;;;;;3.57;1.87;;;;;;;12.63;100.00;101640.91;2111528;28;20416;-61
2022/12/17 13:30:17;;;;;;;2.23;1.53;;;;;;;12.68;100.00;101632.06;2110575;28;20483;-61
2022/12/17 13:31:24;;;;;;;2.53;1.70;;;;;;;12.79;100.00;101646.59;2111669;28;20917;-61
2022/12/17 13:32:32;;;;;;;3.40;1.60;;;;;;;12.77;100.00;101644.25;2109666;28;20178;-61
2022/12/17 13:33:45;;;;;;;11.33;1.90;;;;;;;12.80;100.00;101650.97;2111666;28;20425;-61
2022/12/17 13:34:53;;;;;;;2.53;1.90;;;;;;;12.65;100.00;101647.59;2109762;28;20416;-61
2022/12/17 13:36:26;;;;;;;2.93;2.00;;;;;;;12.58;100.00;101661.63;2109439;28;20774;-61
2022/12/17 13:37:35;;;;;;;2.90;2.00;;;;;;;12.60;100.00;101670.34;2110076;28;20454;-61
2022/12/17 13:38:42;;;;;;;3.13;2.20;;;;;;;11.69;100.00;101540.31;2112261;28;20924;-61
2022/12/17 13:39:53;;;;;;;2.70;2.23;;;;;;;12.31;100.00;101669.19;2111701;28;20852;-61
2022/12/17 13:41:11;;;;;;;3.47;2.00;;;;;;;12.09;100.00;101675.47;2112842;28;20456;-61
2022/12/17 13:42:31;;;;;;;3.53;2.30;;;;;;;11.89;100.00;101650.31;2113407;28;20458;-61
2022/12/17 13:43:37;;;;;;;2.67;2.40;;;;;;;12.04;100.00;101665.59;2113386;28;20491;-61
2022/12/17 13:44:44;;;;;;;2.77;2.10;;;;;;;11.32;100.00;101587.56;2114136;28;20447;-61
2022/12/17 13:45:45;;;;;;;3.43;2.60;;;;;;;11.60;100.00;101629.66;2112810;28;20428;-61
2022/12/17 13:46:48;;;;;;;3.30;2.60;;;;;;;11.87;100.00;101685.25;2114049;28;20440;-62
2022/12/17 13:47:57;;;;;;;2.83;2.10;;;;;;;11.70;100.00;101677.94;2114067;28;20428;-61
2022/12/17 13:48:58;;;;;;;2.77;2.27;;;;;;;11.71;100.00;101687.84;2113900;28;20531;-61
2022/12/17 13:50:02;;;;;;;2.90;2.30;;;;;;;11.65;100.00;101687.53;2112446;28;20440;-61
2022/12/17 13:51:04;;;;;;;3.70;2.83;;;;;;;11.72;100.00;101701.31;2113789;28;20447;-61
2022/12/17 13:52:04;;;;;;;4.30;3.57;;;;;;;11.67;100.00;101696.22;2111185;27;20981;-60
2022/12/17 13:53:11;;;;;;;5.27;3.23;;;;;;;11.15;100.00;101655.91;2111275;28;20568;-61
2022/12/17 13:54:17;;;;;;;5.37;3.27;;;;;;;11.44;100.00;101703.56;2111005;28;20650;-61
2022/12/17 13:55:24;;;;;;;4.43;3.17;;;;;;;11.32;100.00;101721.53;2113309;27;20442;-62
2022/12/17 13:56:33;;;;;;;5.10;3.60;;;;;;;11.16;100.00;101712.97;2112068;28;20423;-61
2022/12/17 13:57:35;;;;;;;4.77;3.30;;;;;;;10.94;100.00;101703.25;2111796;28;20461;-61
2022/12/17 13:58:36;;;;;;;4.73;3.70;;;;;;;10.99;100.00;101719.47;2114153;28;20427;-62
2022/12/17 13:59:37;;;;;;;3.87;3.33;;;;;;;10.87;100.00;101722.69;2111616;28;20527;-61
2022/12/17 14:00:37;;;;;;;4.37;3.47;;;;;;;10.75;100.00;101725.16;2113165;27;20314;-61
2022/12/17 14:01:46;;;;;;;4.73;3.70;;;;;;;10.57;100.00;101718.97;2111129;27;20183;-62
2022/12/17 14:02:47;;;;;;;5.80;4.20;;;;;;;9.53;100.00;101568.78;2113098;28;20218;-61
2022/12/17 14:03:58;;;;;;;4.87;3.80;;;;;;;10.49;100.00;101745.94;2112085;28;20450;-61
2022/12/17 14:05:01;;;;;;;4.77;3.40;;;;;;;10.38;100.00;101725.03;2120540;27;20461;-61
2022/12/17 14:06:06;;;;;;;5.23;3.70;;;;;;;10.35;100.00;101734.94;2119636;27;20444;-61
2022/12/17 14:07:07;;;;;;;5.20;3.50;;;;;;;10.24;100.00;101741.75;2120510;27;20443;-61
2022/12/17 14:08:11;;;;;;;4.33;3.23;;;;;;;10.08;100.00;101739.41;2121010;27;20929;-61
2022/12/17 14:09:17;;;;;;;5.40;3.77;;;;;;;9.79;100.00;101695.59;2112953;28;20286;-62
2022/12/17 14:10:19;;;;;;;5.03;3.60;;;;;;;9.83;100.00;101707.44;2113134;28;20939;-61
2022/12/17 14:12:39;;;;;;;4.23;3.70;;;;;;;9.97;100.00;101746.16;2111466;28;20963;-61
2022/12/17 14:13:41;;;;;;;5.00;4.10;;;;;;;9.95;100.00;101752.09;2113971;27;20814;-61
2022/12/17 14:14:47;;;;;;;4.77;3.83;;;;;;;9.88;100.00;101759.63;2114029;28;20181;-61
2022/12/17 14:15:51;;;;;;;4.67;4.00;;;;;;;9.84;100.00;101762.41;2113201;28;20531;-61
2022/12/17 14:16:52;;;;;;;5.00;4.10;;;;;;;9.76;100.00;101757.28;2113808;28;20691;-60
2022/12/17 14:17:53;;;;;;;4.93;3.80;;;;;;;9.65;100.00;101754.56;2113061;28;20458;-61
2022/12/17 14:18:56;;;;;;;5.35;4.50;;;;;;;9.63;100.00;101775.53;2113500;28;20196;-61
2022/12/17 14:20:12;;;;;;;5.53;4.40;;;;;;;9.56;100.00;101765.25;2120878;27;20202;-61
2022/12/17 14:21:12;;;;;;;5.20;4.60;;;;;;;9.48;100.00;101769.22;2118221;27;20458;-61
2022/12/17 14:22:25;;;;;;;5.40;3.70;;;;;;;9.63;100.00;101776.31;2112200;27;20923;-61
2022/12/17 14:23:28;;;;;;;5.60;4.63;;;;;;;9.62;100.00;101777.50;2113283;27;20187;-61
2022/12/17 14:24:29;;;;;;;4.68;3.88;;;;;;;9.58;100.00;101775.94;2112427;28;20188;-61
2022/12/17 14:25:35;;;;;;;5.50;4.73;;;;;;;9.53;100.00;101774.34;2112072;27;20184;-61
2022/12/17 14:26:49;;;;;;;6.10;4.60;;;;;;;9.16;100.00;101710.38;2112435;28;20206;-61
2022/12/17 14:27:56;;;;;;;6.13;4.75;;;;;;;9.55;100.00;101790.56;2113540;28;20515;-61
2022/12/17 14:28:57;;;;;;;6.00;4.68;;;;;;;9.49;100.00;101795.69;2112909;28;20207;-62
2022/12/17 14:29:57;;;;;;;5.70;4.57;;;;;;;9.43;100.00;101786.22;2113655;28;20169;-61
2022/12/17 14:31:14;;;;;;;6.93;5.30;;;;;;;9.46;100.00;101792.94;2113854;28;20179;-61
2022/12/17 14:32:29;;;;;;;7.03;5.43;;;;;;;9.46;100.00;101798.47;2109977;28;20181;-62
2022/12/17 14:33:32;;;;;;;7.05;5.47;;;;;;;9.42;100.00;101789.38;2111766;27;20433;-61
2022/12/17 14:34:42;;;;;;;6.47;5.57;;;;;;;9.41;100.00;101799.66;2113817;28;20181;-61
2022/12/17 14:35:57;;;;;;;6.32;5.03;;;;;;;9.13;100.00;101774.75;2111973;28;20185;-61
2022/12/17 14:36:59;;;;;;;6.50;5.00;;;;;;;9.29;100.00;101794.53;2111989;28;20204;-61
2022/12/17 14:38:00;;;;;;;7.00;5.60;;;;;;;9.29;100.00;101802.03;2112926;28;20421;-61
2022/12/17 14:39:09;;;;;;;7.80;5.93;;;;;;;9.26;100.00;101798.06;2113344;28;20422;-61
2022/12/17 14:40:13;;;;;;;8.13;5.93;;;;;;;9.26;100.00;101808.34;2114244;28;20172;-61
2022/12/17 14:42:35;;;;;;;11.13;5.50;;;;;;;9.01;100.00;101811.09;2112183;28;20386;-61
2022/12/17 14:43:36;;;;;;;7.20;5.57;;;;;;;9.17;100.00;101819.03;2113655;28;20864;-61
2022/12/17 14:44:48;;;;;;;6.60;5.50;;;;;;;9.20;100.00;101823.75;2112450;28;20547;-61
2022/12/17 14:46:22;;;;;;;6.93;5.65;;;;;;;9.16;100.00;101826.53;2110896;27;20718;-61
2022/12/17 14:47:36;;;;;;;7.43;6.20;;;;;;;9.13;100.00;101832.81;2111581;28;20260;-61
2022/12/17 14:50:05;;;;;;;8.25;7.00;;;;;;;9.09;100.00;101828.50;2111341;28;20186;-61
2022/12/17 14:51:05;;;;;;;7.63;6.65;;;;;;;9.02;100.00;101820.97;2112325;28;20209;-61
2022/12/17 14:52:12;;;;;;;8.70;7.30;;;;;;;8.98;100.00;101825.69;2111677;27;20188;-61
2022/12/17 14:53:26;;;;;;;8.98;7.70;;;;;;;8.64;100.00;101766.41;2111768;28;20185;-61
2022/12/17 14:54:30;;;;;;;8.85;7.65;;;;;;;9.02;100.00;101839.56;2111537;28;20276;-61
2022/12/17 14:55:50;;;;;;;8.90;7.50;;;;;;;8.99;100.00;101835.59;2111603;28;20687;-61
2022/12/17 14:56:53;;;;;;;10.25;7.85;;;;;;;8.98;100.00;101842.28;2111676;28;20696;-60
2022/12/17 14:58:14;;;;;;;10.32;8.73;;;;;;;8.42;100.00;101745.44;2111538;28;20285;-61
2022/12/17 14:59:30;;;;;;;9.10;8.13;;;;;;;9.00;100.00;101834.41;2110194;28;20252;-61
2022/12/17 15:00:31;;;;;;;9.68;8.40;;;;;;;8.98;100.00;101838.75;2110888;28;20647;-62
2022/12/17 15:01:33;;;;;;;10.50;8.37;;;;;;;8.99;100.00;101835.59;2110481;28;20569;-61
2022/12/17 15:02:37;;;;;;;10.55;8.95;;;;;;;8.95;100.00;101828.47;2112165;28;20190;-61
2022/12/17 15:03:44;;;;;;;11.25;9.23;;;;;;;8.90;100.00;101831.59;2110338;28;20278;-62
2022/12/17 15:04:45;;;;;;;10.90;9.75;;;;;;;8.91;100.00;101845.03;2111272;28;20657;-61
2022/12/17 15:05:51;;;;;;;11.27;9.33;;;;;;;8.96;100.00;101843.88;2110312;28;20189;-62
2022/12/17 15:06:54;;;;;;;11.38;9.00;;;;;;;8.89;100.00;101844.66;2110159;28;20309;-61
2022/12/17 15:07:54;;;;;;;12.15;9.68;;;;;;;8.78;100.00;101837.50;2110958;28;20196;-61
2022/12/17 15:08:55;;;;;;;12.30;9.40;;;;;;;8.24;100.00;101752.06;2109962;28;20188;-61
2022/12/17 15:09:56;;;;;;;10.40;9.30;;;;;;;8.83;100.00;101851.75;2110504;28;20208;-61
2022/12/17 15:10:57;;;;;;;10.77;9.10;;;;;;;8.86;100.00;101856.47;2110586;28;20685;-62
2022/12/17 15:11:57;;;;;;;10.60;9.50;;;;;;;8.82;100.00;101844.63;2109681;28;20182;-61
2022/12/17 15:12:58;;;;;;;11.20;9.57;;;;;;;8.89;100.00;101857.69;2111494;28;20402;-62
2022/12/17 15:13:59;;;;;;;11.63;9.30;;;;;;;7.73;100.00;101682.44;2110585;28;20237;-61
2022/12/17 15:15:00;;;;;;;11.07;9.32;;;;;;;8.70;100.00;101864.34;2110286;28;20673;-61
2022/12/17 15:16:00;;;;;;;12.30;10.27;;;;;;;8.73;100.00;101860.00;2111664;28;20646;-61
2022/12/17 15:17:00;;;;;;;11.97;9.60;;;;;;;8.68;100.00;101868.66;2111842;28;20184;-61
2022/12/17 15:18:01;;;;;;;12.07;10.37;;;;;;;8.66;100.00;101869.06;2111743;28;20174;-61
2022/12/17 15:19:01;;;;;;;13.57;9.50;;;;;;;8.61;100.00;101869.44;2112193;28;20496;-61
2022/12/17 15:20:03;;;;;;;11.93;10.00;;;;;;;8.61;100.00;101876.94;2110723;28;20199;-62
2022/12/17 15:21:04;;;;;;;11.77;9.10;;;;;;;8.61;100.00;101880.47;2111484;28;20189;-61
2022/12/17 15:22:05;;;;;;;11.60;9.27;;;;;;;8.56;100.00;101874.56;2112266;28;20265;-61
2022/12/17 15:23:08;;;;;;;11.57;9.53;;;;;;;8.56;100.00;101882.84;2112103;27;20224;-61
2022/12/17 15:24:17;;;;;;;11.20;10.00;;;;;;;8.58;100.00;101886.81;2112772;28;20176;-62
2022/12/17 15:25:18;;;;;;;12.00;10.10;;;;;;;8.52;100.00;101890.31;2110460;28;20739;-61
2022/12/17 15:26:20;;;;;;;12.90;10.20;;;;;;;8.49;100.00;101871.75;2112284;28;20620;-61
2022/12/17 15:27:20;;;;;;;11.95;10.00;;;;;;;8.43;100.00;101881.59;2112255;28;20761;-61
2022/12/17 15:28:21;;;;;;;11.90;9.97;;;;;;;8.35;100.00;101882.75;2111558;28;20176;-62
2022/12/17 15:29:23;;;;;;;12.02;9.90;;;;;;;8.27;100.00;101892.16;2113355;28;20299;-62
2022/12/17 15:30:23;;;;;;;11.55;8.93;;;;;;;8.24;100.00;101879.09;2113009;28;20189;-61
2022/12/17 15:31:24;;;;;;;12.37;9.80;;;;;;;8.14;100.00;101882.56;2112392;28;20197;-61
2022/12/17 15:32:24;;;;;;;12.60;10.33;;;;;;;8.14;100.00;101897.19;2112428;27;20675;-61
2022/12/17 15:33:24;;;;;;;12.33;10.10;;;;;;;8.06;100.00;101892.00;2113028;28;20273;-61
2022/12/17 15:34:25;;;;;;;13.57;10.90;;;;;;;8.07;100.00;101885.28;2112619;28;20191;-61
2022/12/17 15:35:25;;;;;;;13.93;11.23;;;;;;;8.07;100.00;101888.06;2112549;28;20175;-61
2022/12/17 15:36:26;;;;;;;13.13;10.83;;;;;;;8.00;100.00;101905.34;2113412;28;20178;-62
2022/12/17 15:37:26;;;;;;;13.73;10.60;;;;;;;7.78;100.00;101855.91;2113177;28;20590;-61
2022/12/17 15:38:26;;;;;;;14.70;11.17;;;;;;;7.94;100.00;101898.63;2113477;28;20277;-61
2022/12/17 15:39:27;;;;;;;14.57;11.57;;;;;;;7.98;100.00;101888.41;2112671;28;20689;-62
2022/12/17 15:40:27;;;;;;;13.10;10.87;;;;;;;7.92;100.00;101900.97;2112748;28;20252;-61
2022/12/17 15:44:06;;;;;;;13.70;11.45;;;;;;;7.17;100.00;101784.91;2113233;28;20187;-62
2022/12/17 15:45:07;;;;;;;14.10;11.67;;;;;;;7.88;100.00;101899.34;2113123;28;20190;-61
2022/12/17 15:46:09;;;;;;;13.77;11.38;;;;;;;7.91;100.00;101906.88;2112157;28;20220;-62
2022/12/17 15:47:09;;;;;;;12.77;11.27;;;;;;;7.22;100.00;101801.09;2112987;28;20184;-62
2022/12/17 15:48:12;;;;;;;12.93;11.13;;;;;;;7.99;100.00;101908.53;2110740;28;20189;-62
2022/12/17 15:49:12;;;;;;;14.00;11.20;;;;;;;7.98;100.00;101906.91;2112344;28;20178;-62
2022/12/17 15:50:13;;;;;;;14.60;11.93;;;;;;;7.99;100.00;101905.78;2112274;28;20187;-62
2022/12/17 15:51:13;;;;;;;13.70;11.60;;;;;;;7.99;100.00;101912.06;2113421;28;20182;-61
2022/12/17 15:52:14;;;;;;;15.17;11.37;;;;;;;7.95;100.00;101921.50;2113696;28;20194;-62
2022/12/17 15:53:14;;;;;;;12.90;10.80;;;;;;;7.97;100.00;101919.13;2113769;28;20627;-61
2022/12/17 15:54:15;;;;;;;14.77;11.77;;;;;;;7.95;100.00;101918.75;2111616;28;20197;-61
2022/12/17 15:55:15;;;;;;;15.33;11.87;;;;;;;7.94;100.00;101934.50;2111219;28;20182;-61
2022/12/17 15:56:22;;;;;;;16.23;12.53;;;;;;;7.91;100.00;101915.97;2112496;28;20501;-62
2022/12/17 15:57:22;;;;;;;18.65;12.95;;;;;;;7.95;100.00;101929.78;2112144;28;20219;-61
2022/12/17 15:58:23;;;;;;;16.83;12.73;;;;;;;7.98;100.00;101929.00;2113658;28;20182;-61
2022/12/17 15:59:23;;;;;;;16.97;13.30;;;;;;;7.18;100.00;101814.06;2111244;28;20339;-62
2022/12/17 16:00:24;;;;;;;15.13;12.97;;;;;;;7.77;100.00;101909.53;2112289;27;20247;-62
2022/12/17 16:01:24;;;;;;;15.73;12.63;;;;;;;7.91;100.00;101921.47;2111469;28;20728;-61
2022/12/17 16:02:24;;;;;;;17.80;14.07;;;;;;;7.89;100.00;101923.81;2112329;28;20174;-61
2022/12/17 16:03:25;;;;;;;17.37;12.63;;;;;;;7.83;100.00;101917.06;2111639;28;20562;-62
2022/12/17 16:04:25;;;;;;;16.53;13.37;;;;;;;7.58;100.00;101887.72;2113653;28;20507;-62
2022/12/17 16:05:26;;;;;;;17.00;14.00;;;;;;;7.77;100.00;101920.56;2112744;28;20269;-62
2022/12/17 16:06:27;;;;;;;17.58;14.77;;;;;;;7.79;100.00;101921.75;2110710;28;20187;-62
2022/12/17 16:07:27;;;;;;;18.60;14.20;;;;;;;7.80;100.00;101919.81;2112286;28;20174;-62
2022/12/17 16:08:28;;;;;;;17.37;14.37;;;;;;;7.77;100.00;101915.84;2112373;28;20677;-62
2022/12/17 16:09:28;;;;;;;19.33;13.27;;;;;;;7.29;100.00;101853.53;2112136;28;20174;-61
2022/12/17 16:10:29;;;;;;;17.33;14.43;;;;;;;7.81;100.00;101927.72;2112684;28;20181;-62
2022/12/17 16:11:29;;;;;;;19.00;14.80;;;;;;;7.82;100.00;101932.06;2110282;28;20863;-61
2022/12/17 16:12:30;;;;;;;18.33;15.10;;;;;;;7.77;100.00;101920.56;2111100;28;20557;-61
2022/12/17 16:13:31;;;;;;;17.37;13.83;;;;;;;7.60;100.00;101913.75;2111493;27;20190;-61
2022/12/17 16:14:31;;;;;;;17.73;14.20;;;;;;;6.99;100.00;101819.00;2111934;28;20588;-62
2022/12/17 16:15:31;;;;;;;18.27;15.03;;;;;;;7.63;100.00;101937.03;2111642;28;20178;-61
2022/12/17 16:16:32;;;;;;;18.43;14.97;;;;;;;7.66;100.00;101936.25;2111119;28;20343;-62
2022/12/17 16:17:33;;;;;;;19.90;15.97;;;;;;;7.64;100.00;101938.59;2110692;28;20182;-61
2022/12/17 16:18:34;;;;;;;18.27;15.17;;;;;;;6.72;100.00;101809.28;2110678;28;20484;-62
2022/12/17 16:19:36;;;;;;;19.30;15.75;;;;;;;7.61;100.00;101950.38;2110887;28;20271;-61
2022/12/17 16:20:36;;;;;;;18.65;15.52;;;;;;;7.65;100.00;101945.69;2111518;28;20681;-62
2022/12/17 16:21:36;;;;;;;18.73;16.03;;;;;;;7.58;100.00;101948.41;2111888;28;20641;-62
2022/12/17 16:22:37;;;;;;;20.57;15.97;;;;;;;7.56;100.00;101953.50;2111610;28;20186;-62
2022/12/17 16:23:38;;;;;;;19.80;16.17;;;;;;;7.53;100.00;101954.25;2110911;28;20285;-61
2022/12/17 16:24:39;;;;;;;19.93;16.30;;;;;;;7.52;100.00;101953.47;2111528;28;20270;-62
2022/12/17 16:25:40;;;;;;;20.48;15.88;;;;;;;7.47;100.00;101958.50;2111220;28;20648;-61
2022/12/17 16:26:40;;;;;;;20.40;16.60;;;;;;;6.91;100.00;101884.28;2110989;28;20541;-61
2022/12/17 16:27:41;;;;;;;18.20;15.23;;;;;;;7.27;100.00;101979.19;2112031;28;20208;-61
2022/12/17 16:28:41;;;;;;;21.50;16.40;;;;;;;7.40;100.00;101972.25;2111618;28;20185;-61
2022/12/17 16:29:42;;;;;;;21.20;16.67;;;;;;;7.39;100.00;101971.44;2111027;28;20301;-62
2022/12/17 16:30:42;;;;;;;21.93;17.13;;;;;;;7.38;100.00;101975.38;2111687;28;20193;-62
2022/12/17 16:31:42;;;;;;;20.63;16.77;;;;;;;7.42;100.00;101978.16;2110446;28;20186;-62
2022/12/17 16:32:43;;;;;;;21.33;16.87;;;;;;;7.37;100.00;101984.81;2112196;28;20175;-62
2022/12/17 16:33:46;;;;;;;22.33;16.50;;;;;;;7.29;100.00;101994.19;2113702;28;20189;-62
2022/12/17 16:34:46;;;;;;;18.90;15.82;;;;;;;7.27;100.00;101998.47;2113968;28;20248;-61
2022/12/17 16:35:51;;;;;;;21.53;16.80;;;;;;;7.07;100.00;101969.53;2112263;28;20186;-61
2022/12/17 16:36:52;;;;;;;22.58;18.00;;;;;;;7.24;100.00;101991.78;2113290;28;20261;-62
2022/12/17 16:37:52;;;;;;;20.47;16.47;;;;;;;7.11;100.00;101984.94;2112953;28;20200;-61
2022/12/17 16:38:54;;;;;;;22.13;17.13;;;;;;;7.10;100.00;101988.06;2113322;28;20200;-62
2022/12/17 16:39:54;;;;;;;20.58;17.00;;;;;;;7.12;100.00;101992.03;2113316;28;20255;-62
2022/12/17 16:41:00;;;;;;;20.63;15.57;;;;;;;7.13;100.00;101993.59;2112982;28;20178;-62
2022/12/17 16:42:00;;;;;;;23.17;17.60;;;;;;;7.09;100.00;101997.50;2111735;28;20172;-61
2022/12/17 16:43:01;;;;;;;21.97;17.03;;;;;;;7.07;100.00;101997.09;2113537;28;20185;-61
2022/12/17 16:44:02;;;;;;;22.53;17.37;;;;;;;7.10;100.00;101993.56;2113064;28;20185;-61
2022/12/17 16:45:02;;;;;;;24.23;17.73;;;;;;;7.06;100.00;101996.28;2113313;28;20209;-61
2022/12/17 16:46:03;;;;;;;23.03;18.10;;;;;;;7.08;100.00;102001.44;2112835;28;20186;-61
2022/12/17 16:47:03;;;;;;;22.57;17.97;;;;;;;7.05;100.00;101994.69;2113241;28;20272;-62
2022/12/17 16:48:04;;;;;;;22.80;18.60;;;;;;;7.04;100.00;101995.88;2113206;28;20212;-61
2022/12/17 16:49:11;;;;;;;21.60;16.40;;;;;;;6.97;100.00;101998.53;2112725;28;20175;-61
2022/12/17 16:50:12;;;;;;;21.70;17.20;;;;;;;6.99;100.00;101998.16;2113077;28;20198;-62
2022/12/17 16:51:17;;;;;;;21.73;16.60;;;;;;;6.99;100.00;102000.91;2112638;28;20183;-61
2022/12/17 16:52:17;;;;;;;21.58;15.95;;;;;;;6.91;100.00;101996.47;2113678;28;20243;-61
2022/12/17 16:53:18;;;;;;;23.13;16.30;;;;;;;6.74;100.00;101978.56;2113233;28;20174;-61
2022/12/17 16:54:22;;;;;;;22.20;17.43;;;;;;;6.83;100.00;102001.09;2113225;28;20197;-61
2022/12/17 16:55:22;;;;;;;22.23;16.20;;;;;;;6.80;100.00;101995.53;2113278;28;20181;-61
2022/12/17 16:56:26;;;;;;;20.57;16.23;;;;;;;6.80;100.00;101995.53;2112672;28;20666;-61
2022/12/17 16:57:27;;;;;;;22.85;16.95;;;;;;;6.71;100.00;102001.34;2113389;28;20205;-61
2022/12/17 16:58:28;;;;;;;20.60;15.93;;;;;;;6.78;100.00;102000.66;2112979;28;20193;-61
2022/12/17 16:59:29;;;;;;;21.40;17.00;;;;;;;6.79;100.00;102008.53;2112550;28;20186;-61
2022/12/17 17:00:29;;;;;;;23.45;17.83;;;;;;;6.84;100.00;102007.41;2113175;28;20678;-61
2022/12/17 17:01:30;;;;;;;23.57;17.60;;;;;;;6.84;100.00;102005.47;2112842;28;20401;-61
2022/12/17 17:02:31;;;;;;;22.63;17.08;;;;;;;6.80;100.00;102003.81;2112491;28;20274;-62
2022/12/17 17:03:31;;;;;;;23.93;18.57;;;;;;;6.75;100.00;102015.97;2113112;28;20189;-61
2022/12/17 17:04:32;;;;;;;23.60;18.33;;;;;;;6.73;100.00;102020.25;2113023;28;20194;-62
2022/12/17 17:05:35;;;;;;;23.95;17.08;;;;;;;6.66;100.00;102009.91;2112547;28;20180;-62
2022/12/17 17:06:41;;;;;;;23.98;17.38;;;;;;;6.66;100.00;102014.66;2112556;28;20672;-61
2022/12/17 17:07:42;;;;;;;23.45;17.88;;;;;;;6.64;100.00;102022.47;2112225;28;20280;-61
2022/12/17 17:08:43;;;;;;;24.80;17.00;;;;;;;6.66;100.00;102025.69;2113024;28;20173;-61
2022/12/17 17:09:43;;;;;;;22.27;16.95;;;;;;;6.61;100.00;102017.72;2112355;28;20181;-61
2022/12/17 17:10:44;;;;;;;20.43;15.93;;;;;;;6.62;100.00;102019.31;2113237;28;20205;-61
2022/12/17 17:11:44;;;;;;;22.07;15.47;;;;;;;6.66;100.00;102031.19;2112580;28;20177;-61
2022/12/17 17:12:45;;;;;;;21.17;15.57;;;;;;;6.66;100.00;102031.97;2113041;28;20193;-61
2022/12/17 17:13:47;;;;;;;21.10;15.77;;;;;;;6.62;100.00;102024.81;2113269;28;20192;-62
2022/12/17 17:14:50;;;;;;;21.02;15.20;;;;;;;6.63;100.00;102032.72;2112911;28;20197;-61
2022/12/17 17:15:50;;;;;;;21.38;15.32;;;;;;;6.60;100.00;102035.41;2112518;28;20199;-62
2022/12/17 17:16:51;;;;;;;22.70;15.70;;;;;;;6.59;100.00;102048.41;2113110;28;20193;-61
2022/12/17 17:17:52;;;;;;;20.58;15.43;;;;;;;6.56;100.00;102032.59;2112963;28;20209;-62
2022/12/17 17:18:53;;;;;;;22.83;15.93;;;;;;;6.56;100.00;102048.34;2112853;28;20197;-61
2022/12/17 17:19:53;;;;;;;21.17;15.77;;;;;;;6.33;100.00;102009.03;2112940;28;20204;-61
2022/12/17 17:20:54;;;;;;;21.20;16.03;;;;;;;6.38;100.00;102020.53;2112861;28;20202;-61
2022/12/17 17:21:54;;;;;;;21.03;15.90;;;;;;;6.55;100.00;102044.78;2112107;28;20261;-61
2022/12/17 17:22:55;;;;;;;22.53;17.23;;;;;;;6.50;100.00;102041.53;2112908;28;20214;-61
2022/12/17 17:24:16;;;;;;;22.27;16.80;;;;;;;6.49;100.00;102048.22;2113127;28;20182;-62
2022/12/17 17:25:16;;;;;;;25.52;18.00;;;;;;;6.49;100.00;102048.22;2112799;28;20202;-61
2022/12/17 17:26:17;;;;;;;23.87;18.00;;;;;;;6.48;100.00;102052.94;2112584;28;20209;-62
2022/12/17 17:27:17;;;;;;;25.90;18.57;;;;;;;6.43;100.00;102053.28;2113003;28;20718;-62
2022/12/17 17:28:18;;;;;;;26.33;19.13;;;;;;;6.29;100.00;102055.78;2112280;28;20177;-62
2022/12/17 17:29:18;;;;;;;27.03;19.80;;;;;;;6.37;100.00;102062.19;2111737;28;20643;-61
2022/12/17 17:30:19;;;;;;;27.67;19.53;;;;;;;6.38;100.00;102064.59;2111545;28;20174;-61
2022/12/17 17:31:20;;;;;;;27.00;20.37;;;;;;;6.40;100.00;102059.50;2112168;28;20650;-61
2022/12/17 17:32:21;;;;;;;26.50;20.35;;;;;;;6.24;100.00;102042.34;2111890;28;20193;-61
2022/12/17 17:33:22;;;;;;;28.45;20.27;;;;;;;6.38;100.00;102069.28;2111063;28;20277;-61
2022/12/17 17:34:22;;;;;;;25.50;19.40;;;;;;;6.02;100.00;102014.81;2112260;28;20178;-62
2022/12/17 17:35:23;;;;;;;28.50;21.70;;;;;;;6.31;100.00;102075.47;2112175;28;20186;-61
2022/12/17 17:36:28;;;;;;;28.73;20.27;;;;;;;6.32;100.00;102079.84;2111338;28;20205;-61
2022/12/17 17:37:28;;;;;;;27.83;20.80;;;;;;;6.33;100.00;102088.88;2112289;28;20219;-61
2022/12/17 17:38:29;;;;;;;28.07;21.33;;;;;;;5.89;100.00;102019.72;2112059;28;20177;-61
2022/12/17 17:39:31;;;;;;;27.60;20.77;;;;;;;6.17;100.00;102061.50;2112691;28;20674;-61
2022/12/17 17:40:32;;;;;;;28.55;21.02;;;;;;;6.29;100.00;102099.03;2111478;28;20182;-61
2022/12/17 17:41:34;;;;;;;27.07;19.53;;;;;;;6.34;100.00;102095.97;2111454;28;20281;-61
2022/12/17 17:42:34;;;;;;;23.85;17.27;;;;;;;6.32;100.00;102099.13;2112016;28;20182;-62
2022/12/17 17:43:35;;;;;;;25.30;18.87;;;;;;;5.63;100.00;101994.88;2112642;28;20655;-61
2022/12/17 17:44:36;;;;;;;26.17;19.27;;;;;;;6.28;100.00;102112.03;2112672;28;20190;-62
2022/12/17 17:45:39;;;;;;;26.57;19.43;;;;;;;6.29;100.00;102119.09;2111778;28;20208;-61
2022/12/17 17:46:40;;;;;;;27.33;19.33;;;;;;;6.26;100.00;102102.53;2112356;28;20420;-61
2022/12/17 17:47:40;;;;;;;24.20;18.10;;;;;;;6.26;100.00;102110.78;2113044;28;20193;-61
2022/12/17 17:48:42;;;;;;;27.53;20.00;;;;;;;6.30;100.00;102112.44;2113492;28;20180;-61
2022/12/17 17:49:42;;;;;;;26.08;19.73;;;;;;;6.33;100.00;102122.72;2113370;28;20177;-61
2022/12/17 17:50:43;;;;;;;29.17;20.43;;;;;;;6.33;100.00;102117.22;2112615;28;20175;-62
2022/12/17 17:51:43;;;;;;;26.40;18.97;;;;;;;6.29;100.00;102118.31;2112128;28;20197;-61
2022/12/17 17:52:44;;;;;;;27.10;20.17;;;;;;;6.40;100.00;102131.09;2112809;28;20183;-61
2022/12/17 17:53:49;;;;;;;26.97;19.93;;;;;;;6.38;100.00;102127.13;2112940;28;20197;-62
2022/12/17 17:54:49;;;;;;;28.80;21.50;;;;;;;6.37;100.00;102129.09;2112891;28;20624;-61
2022/12/17 17:55:50;;;;;;;27.83;21.33;;;;;;;6.08;100.00;102080.22;2112522;28;20178;-62
2022/12/17 17:56:50;;;;;;;28.30;21.83;;;;;;;6.38;100.00;102129.88;2112905;28;20193;-61
2022/12/17 17:57:51;;;;;;;28.07;20.50;;;;;;;6.33;100.00;102127.44;2113454;28;20662;-62
2022/12/17 17:58:54;;;;;;;27.88;21.52;;;;;;;6.32;100.00;102142.38;2112899;28;20565;-61
2022/12/17 17:59:54;;;;;;;28.20;20.98;;;;;;;6.36;100.00;102130.25;2113110;28;20261;-62
2022/12/17 18:00:55;;;;;;;28.57;21.20;;;;;;;6.36;100.00;102135.75;2112917;28;20189;-61
2022/12/17 18:01:55;;;;;;;28.70;21.07;;;;;;;6.39;100.00;102142.47;2111594;28;20193;-62
2022/12/17 18:02:56;;;;;;;28.53;21.40;;;;;;;6.39;100.00;102131.47;2112517;28;20280;-62